sensor_id;sensor_type;location;lat;lon;timestamp;P1;durP1;ratioP1;P2;durP2;ratioP2
40022;SDS011;25713;-35.352;149.036;2023-09-08T00:01:01;1.67;;;0.35;;
40022;SDS011;25713;-35.352;149.036;2023-09-08T00:03:30;0.60;;;0.20;;
40022;SDS011;25713;-35.352;149.036;2023-09-08T00:06:00;0.55;;;0.20;;
40022;SDS011;25713;-35.352;149.036;2023-09-08T00:08:29;4.05;;;0.30;;
40022;SDS011;25713;-35.352;149.036;2023-09-08T00:11:00;1.23;;;0.10;;
40022;SDS011;25713;-35.352;149.036;2023-09-08T00:13:30;0.15;;;0.10;;
40022;SDS011;25713;-35.352;149.036;2023-09-08T00:15:59;1.25;;;0.25;;
40022;SDS011;25713;-35.352;149.036;2023-09-08T00:18:29;1.67;;;0.30;;
40022;SDS011;25713;-35.352;149.036;2023-09-08T00:20:58;2.10;;;0.28;;
40022;SDS011;25713;-35.352;149.036;2023-09-08T00:23:28;1.27;;;0.20;;
40022;SDS011;25713;-35.352;149.036;2023-09-08T00:25:57;1.27;;;0.30;;
40022;SDS011;25713;-35.352;149.036;2023-09-08T00:28:29;2.83;;;0.87;;
40022;SDS011;25713;-35.352;149.036;2023-09-08T00:30:59;2.28;;;0.20;;
40022;SDS011;25713;-35.352;149.036;2023-09-08T00:33:29;1.10;;;0.20;;
40022;SDS011;25713;-35.352;149.036;2023-09-08T00:35:58;0.55;;;0.22;;
40022;SDS011;25713;-35.352;149.036;2023-09-08T00:38:27;0.40;;;0.10;;
40022;SDS011;25713;-35.352;149.036;2023-09-08T00:40:57;1.35;;;0.20;;
40022;SDS011;25713;-35.352;149.036;2023-09-08T00:43:29;3.20;;;0.22;;
40022;SDS011;25713;-35.352;149.036;2023-09-08T00:45:59;0.10;;;0.08;;
40022;SDS011;25713;-35.352;149.036;2023-09-08T00:48:28;0.52;;;0.15;;
40022;SDS011;25713;-35.352;149.036;2023-09-08T00:50:58;0.75;;;0.10;;
40022;SDS011;25713;-35.352;149.036;2023-09-08T00:53:27;1.70;;;0.22;;
40022;SDS011;25713;-35.352;149.036;2023-09-08T00:55:57;0.90;;;0.35;;
40022;SDS011;25713;-35.352;149.036;2023-09-08T01:00:58;0.30;;;0.10;;
40022;SDS011;25713;-35.352;149.036;2023-09-08T01:03:27;0.22;;;0.20;;
40022;SDS011;25713;-35.352;149.036;2023-09-08T01:05:57;0.20;;;0.15;;
40022;SDS011;25713;-35.352;149.036;2023-09-08T01:08:27;1.58;;;0.10;;
40022;SDS011;25713;-35.352;149.036;2023-09-08T01:10:57;1.67;;;0.20;;
40022;SDS011;25713;-35.352;149.036;2023-09-08T01:13:28;2.05;;;0.32;;
40022;SDS011;25713;-35.352;149.036;2023-09-08T01:15:57;0.95;;;0.20;;
40022;SDS011;25713;-35.352;149.036;2023-09-08T01:18:27;0.88;;;0.17;;
40022;SDS011;25713;-35.352;149.036;2023-09-08T01:24:15;1.92;;;0.50;;
40022;SDS011;25713;-35.352;149.036;2023-09-08T01:26:57;0.32;;;0.15;;
40022;SDS011;25713;-35.352;149.036;2023-09-08T01:29:27;0.40;;;0.20;;
40022;SDS011;25713;-35.352;149.036;2023-09-08T01:31:57;0.47;;;0.20;;
40022;SDS011;25713;-35.352;149.036;2023-09-08T01:34:27;3.88;;;0.40;;
40022;SDS011;25713;-35.352;149.036;2023-09-08T01:36:57;0.82;;;0.20;;
40022;SDS011;25713;-35.352;149.036;2023-09-08T01:39:28;1.48;;;0.30;;
40022;SDS011;25713;-35.352;149.036;2023-09-08T01:41:59;1.95;;;0.30;;
40022;SDS011;25713;-35.352;149.036;2023-09-08T01:44:29;2.72;;;0.30;;
40022;SDS011;25713;-35.352;149.036;2023-09-08T01:46:59;0.25;;;0.10;;
40022;SDS011;25713;-35.352;149.036;2023-09-08T01:49:28;1.02;;;0.10;;
40022;SDS011;25713;-35.352;149.036;2023-09-08T01:51:59;1.20;;;0.17;;
40022;SDS011;25713;-35.352;149.036;2023-09-08T01:54:29;0.10;;;0.10;;
40022;SDS011;25713;-35.352;149.036;2023-09-08T01:57:00;0.20;;;0.10;;
40022;SDS011;25713;-35.352;149.036;2023-09-08T01:59:30;1.55;;;1.10;;
40022;SDS011;25713;-35.352;149.036;2023-09-08T02:02:00;1.27;;;0.10;;
40022;SDS011;25713;-35.352;149.036;2023-09-08T02:04:30;0.22;;;0.10;;
40022;SDS011;25713;-35.352;149.036;2023-09-08T02:06:59;0.52;;;0.20;;
40022;SDS011;25713;-35.352;149.036;2023-09-08T02:09:32;0.57;;;0.00;;
40022;SDS011;25713;-35.352;149.036;2023-09-08T02:12:04;0.30;;;0.10;;
40022;SDS011;25713;-35.352;149.036;2023-09-08T02:14:34;0.20;;;0.10;;
40022;SDS011;25713;-35.352;149.036;2023-09-08T02:17:04;0.08;;;0.00;;
40022;SDS011;25713;-35.352;149.036;2023-09-08T02:19:33;0.00;;;0.00;;
40022;SDS011;25713;-35.352;149.036;2023-09-08T02:22:03;0.20;;;0.10;;
40022;SDS011;25713;-35.352;149.036;2023-09-08T02:24:33;0.00;;;0.00;;
40022;SDS011;25713;-35.352;149.036;2023-09-08T02:27:04;0.10;;;0.10;;
40022;SDS011;25713;-35.352;149.036;2023-09-08T02:29:34;0.00;;;0.00;;
40022;SDS011;25713;-35.352;149.036;2023-09-08T02:32:04;0.20;;;0.08;;
40022;SDS011;25713;-35.352;149.036;2023-09-08T02:34:34;0.10;;;0.10;;
40022;SDS011;25713;-35.352;149.036;2023-09-08T02:37:05;0.35;;;0.10;;
40022;SDS011;25713;-35.352;149.036;2023-09-08T02:39:35;1.08;;;0.25;;
40022;SDS011;25713;-35.352;149.036;2023-09-08T02:42:06;0.35;;;0.08;;
40022;SDS011;25713;-35.352;149.036;2023-09-08T02:44:36;0.00;;;0.00;;
40022;SDS011;25713;-35.352;149.036;2023-09-08T02:47:05;0.00;;;0.00;;
40022;SDS011;25713;-35.352;149.036;2023-09-08T02:49:37;0.05;;;0.05;;
40022;SDS011;25713;-35.352;149.036;2023-09-08T02:52:06;0.00;;;0.00;;
40022;SDS011;25713;-35.352;149.036;2023-09-08T02:54:36;0.10;;;0.10;;
40022;SDS011;25713;-35.352;149.036;2023-09-08T02:57:08;0.00;;;0.00;;
40022;SDS011;25713;-35.352;149.036;2023-09-08T03:02:06;0.10;;;0.10;;
40022;SDS011;25713;-35.352;149.036;2023-09-08T03:04:36;0.00;;;0.00;;
40022;SDS011;25713;-35.352;149.036;2023-09-08T03:07:05;0.10;;;0.10;;
40022;SDS011;25713;-35.352;149.036;2023-09-08T03:09:35;0.00;;;0.00;;
40022;SDS011;25713;-35.352;149.036;2023-09-08T03:12:05;0.13;;;0.00;;
40022;SDS011;25713;-35.352;149.036;2023-09-08T03:14:36;0.30;;;0.20;;
40022;SDS011;25713;-35.352;149.036;2023-09-08T03:17:07;0.05;;;0.05;;
40022;SDS011;25713;-35.352;149.036;2023-09-08T03:19:37;0.10;;;0.10;;
40022;SDS011;25713;-35.352;149.036;2023-09-08T03:22:07;0.00;;;0.00;;
40022;SDS011;25713;-35.352;149.036;2023-09-08T03:24:37;0.03;;;0.00;;
40022;SDS011;25713;-35.352;149.036;2023-09-08T03:27:08;0.05;;;0.05;;
40022;SDS011;25713;-35.352;149.036;2023-09-08T03:29:38;0.10;;;0.10;;
40022;SDS011;25713;-35.352;149.036;2023-09-08T03:32:07;0.00;;;0.00;;
40022;SDS011;25713;-35.352;149.036;2023-09-08T03:34:36;0.10;;;0.10;;
40022;SDS011;25713;-35.352;149.036;2023-09-08T03:37:06;0.32;;;0.30;;
40022;SDS011;25713;-35.352;149.036;2023-09-08T03:39:35;0.10;;;0.10;;
40022;SDS011;25713;-35.352;149.036;2023-09-08T03:42:05;0.10;;;0.10;;
40022;SDS011;25713;-35.352;149.036;2023-09-08T03:44:36;0.83;;;0.10;;
40022;SDS011;25713;-35.352;149.036;2023-09-08T03:47:06;0.08;;;0.08;;
40022;SDS011;25713;-35.352;149.036;2023-09-08T03:49:36;0.10;;;0.10;;
40022;SDS011;25713;-35.352;149.036;2023-09-08T03:52:06;0.00;;;0.00;;
40022;SDS011;25713;-35.352;149.036;2023-09-08T03:54:35;0.00;;;0.00;;
40022;SDS011;25713;-35.352;149.036;2023-09-08T03:57:05;0.17;;;0.10;;
40022;SDS011;25713;-35.352;149.036;2023-09-08T03:59:36;0.17;;;0.03;;
40022;SDS011;25713;-35.352;149.036;2023-09-08T04:02:05;0.03;;;0.00;;
40022;SDS011;25713;-35.352;149.036;2023-09-08T04:04:35;1.17;;;0.10;;
40022;SDS011;25713;-35.352;149.036;2023-09-08T04:07:05;0.15;;;0.10;;
40022;SDS011;25713;-35.352;149.036;2023-09-08T04:09:34;0.00;;;0.00;;
40022;SDS011;25713;-35.352;149.036;2023-09-08T04:12:04;0.00;;;0.00;;
40022;SDS011;25713;-35.352;149.036;2023-09-08T04:14:36;1.88;;;0.10;;
40022;SDS011;25713;-35.352;149.036;2023-09-08T04:17:05;0.13;;;0.10;;
40022;SDS011;25713;-35.352;149.036;2023-09-08T04:19:34;1.30;;;0.17;;
40022;SDS011;25713;-35.352;149.036;2023-09-08T04:22:04;0.32;;;0.10;;
40022;SDS011;25713;-35.352;149.036;2023-09-08T04:24:35;1.10;;;0.17;;
40022;SDS011;25713;-35.352;149.036;2023-09-08T04:27:04;0.32;;;0.10;;
40022;SDS011;25713;-35.352;149.036;2023-09-08T04:29:36;0.20;;;0.10;;
40022;SDS011;25713;-35.352;149.036;2023-09-08T04:32:06;0.50;;;0.10;;
40022;SDS011;25713;-35.352;149.036;2023-09-08T04:34:37;1.50;;;0.17;;
40022;SDS011;25713;-35.352;149.036;2023-09-08T04:37:07;2.13;;;0.52;;
40022;SDS011;25713;-35.352;149.036;2023-09-08T04:39:37;0.35;;;0.20;;
40022;SDS011;25713;-35.352;149.036;2023-09-08T04:42:07;0.10;;;0.10;;
40022;SDS011;25713;-35.352;149.036;2023-09-08T04:44:39;1.10;;;0.17;;
40022;SDS011;25713;-35.352;149.036;2023-09-08T04:47:10;0.25;;;0.20;;
40022;SDS011;25713;-35.352;149.036;2023-09-08T04:49:39;1.73;;;0.40;;
40022;SDS011;25713;-35.352;149.036;2023-09-08T04:52:09;0.77;;;0.30;;
40022;SDS011;25713;-35.352;149.036;2023-09-08T04:54:39;0.70;;;0.40;;
40022;SDS011;25713;-35.352;149.036;2023-09-08T04:57:08;0.80;;;0.30;;
40022;SDS011;25713;-35.352;149.036;2023-09-08T04:59:40;1.58;;;0.40;;
40022;SDS011;25713;-35.352;149.036;2023-09-08T05:02:10;0.90;;;0.30;;
40022;SDS011;25713;-35.352;149.036;2023-09-08T05:04:40;1.25;;;0.40;;
40022;SDS011;25713;-35.352;149.036;2023-09-08T05:07:11;1.00;;;0.40;;
40022;SDS011;25713;-35.352;149.036;2023-09-08T05:09:40;1.13;;;0.35;;
40022;SDS011;25713;-35.352;149.036;2023-09-08T05:12:10;0.50;;;0.20;;
40022;SDS011;25713;-35.352;149.036;2023-09-08T05:14:42;1.02;;;0.28;;
40022;SDS011;25713;-35.352;149.036;2023-09-08T05:17:12;1.03;;;0.10;;
40022;SDS011;25713;-35.352;149.036;2023-09-08T05:19:41;0.93;;;0.20;;
40022;SDS011;25713;-35.352;149.036;2023-09-08T05:22:11;1.05;;;0.20;;
40022;SDS011;25713;-35.352;149.036;2023-09-08T05:24:40;0.40;;;0.30;;
40022;SDS011;25713;-35.352;149.036;2023-09-08T05:27:10;0.93;;;0.30;;
40022;SDS011;25713;-35.352;149.036;2023-09-08T05:29:39;0.95;;;0.30;;
40022;SDS011;25713;-35.352;149.036;2023-09-08T05:32:11;0.88;;;0.80;;
40022;SDS011;25713;-35.352;149.036;2023-09-08T05:34:40;0.40;;;0.20;;
40022;SDS011;25713;-35.352;149.036;2023-09-08T05:37:10;2.03;;;0.22;;
40022;SDS011;25713;-35.352;149.036;2023-09-08T05:39:40;1.70;;;0.30;;
40022;SDS011;25713;-35.352;149.036;2023-09-08T05:42:09;0.10;;;0.10;;
40022;SDS011;25713;-35.352;149.036;2023-09-08T05:44:39;0.80;;;0.20;;
40022;SDS011;25713;-35.352;149.036;2023-09-08T05:47:11;0.95;;;0.20;;
40022;SDS011;25713;-35.352;149.036;2023-09-08T05:49:41;0.40;;;0.20;;
40022;SDS011;25713;-35.352;149.036;2023-09-08T05:52:11;0.75;;;0.17;;
40022;SDS011;25713;-35.352;149.036;2023-09-08T05:54:41;0.32;;;0.10;;
40022;SDS011;25713;-35.352;149.036;2023-09-08T05:57:12;1.40;;;0.30;;
40022;SDS011;25713;-35.352;149.036;2023-09-08T05:59:43;1.52;;;0.30;;
40022;SDS011;25713;-35.352;149.036;2023-09-08T06:02:13;0.75;;;0.20;;
40022;SDS011;25713;-35.352;149.036;2023-09-08T06:04:43;1.35;;;0.30;;
40022;SDS011;25713;-35.352;149.036;2023-09-08T06:07:13;0.85;;;0.00;;
40022;SDS011;25713;-35.352;149.036;2023-09-08T06:09:43;0.65;;;0.20;;
40022;SDS011;25713;-35.352;149.036;2023-09-08T06:12:12;0.65;;;0.20;;
40022;SDS011;25713;-35.352;149.036;2023-09-08T06:14:43;1.10;;;0.20;;
40022;SDS011;25713;-35.352;149.036;2023-09-08T06:17:14;1.88;;;0.30;;
40022;SDS011;25713;-35.352;149.036;2023-09-08T06:19:43;0.88;;;0.40;;
40022;SDS011;25713;-35.352;149.036;2023-09-08T06:22:13;2.00;;;0.38;;
40022;SDS011;25713;-35.352;149.036;2023-09-08T06:24:43;0.60;;;0.60;;
40022;SDS011;25713;-35.352;149.036;2023-09-08T06:27:14;1.30;;;0.20;;
40022;SDS011;25713;-35.352;149.036;2023-09-08T06:29:48;1.27;;;0.28;;
40022;SDS011;25713;-35.352;149.036;2023-09-08T06:32:18;1.42;;;0.30;;
40022;SDS011;25713;-35.352;149.036;2023-09-08T06:34:48;3.60;;;0.40;;
40022;SDS011;25713;-35.352;149.036;2023-09-08T06:37:18;1.52;;;0.35;;
40022;SDS011;25713;-35.352;149.036;2023-09-08T06:39:47;1.50;;;0.30;;
40022;SDS011;25713;-35.352;149.036;2023-09-08T06:42:17;1.25;;;0.30;;
40022;SDS011;25713;-35.352;149.036;2023-09-08T06:44:55;1.75;;;0.40;;
40022;SDS011;25713;-35.352;149.036;2023-09-08T06:47:24;2.17;;;1.10;;
40022;SDS011;25713;-35.352;149.036;2023-09-08T06:49:54;4.95;;;0.57;;
40022;SDS011;25713;-35.352;149.036;2023-09-08T06:52:23;2.08;;;0.40;;
40022;SDS011;25713;-35.352;149.036;2023-09-08T06:54:53;7.82;;;0.60;;
40022;SDS011;25713;-35.352;149.036;2023-09-08T06:57:23;1.98;;;0.30;;
40022;SDS011;25713;-35.352;149.036;2023-09-08T06:59:57;3.05;;;1.67;;
40022;SDS011;25713;-35.352;149.036;2023-09-08T07:02:26;4.45;;;1.17;;
40022;SDS011;25713;-35.352;149.036;2023-09-08T07:04:56;5.05;;;1.33;;
40022;SDS011;25713;-35.352;149.036;2023-09-08T07:07:25;3.15;;;0.80;;
40022;SDS011;25713;-35.352;149.036;2023-09-08T07:09:55;2.03;;;1.00;;
40022;SDS011;25713;-35.352;149.036;2023-09-08T07:12:24;3.05;;;0.90;;
40022;SDS011;25713;-35.352;149.036;2023-09-08T07:14:58;2.05;;;0.68;;
40022;SDS011;25713;-35.352;149.036;2023-09-08T07:17:28;2.03;;;0.70;;
40022;SDS011;25713;-35.352;149.036;2023-09-08T07:19:57;3.30;;;0.80;;
40022;SDS011;25713;-35.352;149.036;2023-09-08T07:22:27;5.20;;;0.85;;
40022;SDS011;25713;-35.352;149.036;2023-09-08T07:24:56;2.05;;;0.70;;
40022;SDS011;25713;-35.352;149.036;2023-09-08T07:27:26;3.72;;;0.88;;
40022;SDS011;25713;-35.352;149.036;2023-09-08T07:29:59;4.68;;;0.63;;
40022;SDS011;25713;-35.352;149.036;2023-09-08T07:32:29;1.98;;;0.60;;
40022;SDS011;25713;-35.352;149.036;2023-09-08T07:34:58;2.22;;;0.60;;
40022;SDS011;25713;-35.352;149.036;2023-09-08T07:37:28;1.60;;;0.70;;
40022;SDS011;25713;-35.352;149.036;2023-09-08T07:39:58;1.73;;;0.43;;
40022;SDS011;25713;-35.352;149.036;2023-09-08T07:42:27;1.45;;;0.30;;
40022;SDS011;25713;-35.352;149.036;2023-09-08T07:44:59;2.53;;;0.50;;
40022;SDS011;25713;-35.352;149.036;2023-09-08T07:47:28;3.10;;;0.35;;
40022;SDS011;25713;-35.352;149.036;2023-09-08T07:52:44;2.78;;;0.40;;
40022;SDS011;25713;-35.352;149.036;2023-09-08T07:55:14;1.48;;;0.40;;
40022;SDS011;25713;-35.352;149.036;2023-09-08T07:57:44;1.45;;;0.47;;
40022;SDS011;25713;-35.352;149.036;2023-09-08T08:00:16;1.08;;;0.30;;
40022;SDS011;25713;-35.352;149.036;2023-09-08T08:02:46;2.88;;;0.40;;
40022;SDS011;25713;-35.352;149.036;2023-09-08T08:05:17;4.72;;;2.22;;
40022;SDS011;25713;-35.352;149.036;2023-09-08T08:07:46;3.28;;;0.50;;
40022;SDS011;25713;-35.352;149.036;2023-09-08T08:10:16;3.20;;;0.57;;
40022;SDS011;25713;-35.352;149.036;2023-09-08T08:12:46;1.50;;;0.40;;
40022;SDS011;25713;-35.352;149.036;2023-09-08T08:15:18;2.53;;;0.57;;
40022;SDS011;25713;-35.352;149.036;2023-09-08T08:17:48;1.20;;;0.40;;
40022;SDS011;25713;-35.352;149.036;2023-09-08T08:20:17;3.45;;;0.70;;
40022;SDS011;25713;-35.352;149.036;2023-09-08T08:22:47;2.80;;;0.50;;
40022;SDS011;25713;-35.352;149.036;2023-09-08T08:25:16;2.63;;;0.50;;
40022;SDS011;25713;-35.352;149.036;2023-09-08T08:27:46;3.65;;;0.68;;
40022;SDS011;25713;-35.352;149.036;2023-09-08T08:30:17;1.65;;;0.45;;
40022;SDS011;25713;-35.352;149.036;2023-09-08T08:32:47;1.77;;;0.50;;
40022;SDS011;25713;-35.352;149.036;2023-09-08T08:35:17;2.45;;;0.60;;
40022;SDS011;25713;-35.352;149.036;2023-09-08T08:37:46;4.43;;;0.50;;
40022;SDS011;25713;-35.352;149.036;2023-09-08T08:40:16;2.78;;;0.40;;
40022;SDS011;25713;-35.352;149.036;2023-09-08T08:42:45;3.67;;;0.82;;
40022;SDS011;25713;-35.352;149.036;2023-09-08T08:45:15;2.28;;;0.50;;
40022;SDS011;25713;-35.352;149.036;2023-09-08T08:47:49;3.05;;;0.50;;
40022;SDS011;25713;-35.352;149.036;2023-09-08T08:50:19;1.60;;;0.40;;
40022;SDS011;25713;-35.352;149.036;2023-09-08T08:52:49;3.33;;;0.50;;
40022;SDS011;25713;-35.352;149.036;2023-09-08T08:55:19;1.50;;;0.40;;
40022;SDS011;25713;-35.352;149.036;2023-09-08T08:57:49;3.17;;;0.60;;
40022;SDS011;25713;-35.352;149.036;2023-09-08T09:00:21;2.33;;;0.57;;
40022;SDS011;25713;-35.352;149.036;2023-09-08T09:02:51;3.17;;;0.47;;
40022;SDS011;25713;-35.352;149.036;2023-09-08T09:05:21;2.67;;;0.60;;
40022;SDS011;25713;-35.352;149.036;2023-09-08T09:07:51;5.53;;;0.80;;
40022;SDS011;25713;-35.352;149.036;2023-09-08T09:10:22;4.18;;;0.68;;
40022;SDS011;25713;-35.352;149.036;2023-09-08T09:12:52;3.13;;;0.73;;
40022;SDS011;25713;-35.352;149.036;2023-09-08T09:15:30;1.42;;;0.60;;
40022;SDS011;25713;-35.352;149.036;2023-09-08T09:18:03;1.83;;;0.50;;
40022;SDS011;25713;-35.352;149.036;2023-09-08T09:20:33;2.45;;;0.50;;
40022;SDS011;25713;-35.352;149.036;2023-09-08T09:23:03;3.08;;;0.50;;
40022;SDS011;25713;-35.352;149.036;2023-09-08T09:25:33;1.83;;;0.52;;
40022;SDS011;25713;-35.352;149.036;2023-09-08T09:28:02;4.15;;;0.85;;
40022;SDS011;25713;-35.352;149.036;2023-09-08T09:30:48;3.00;;;0.60;;
40022;SDS011;25713;-35.352;149.036;2023-09-08T09:33:18;7.32;;;0.70;;
40022;SDS011;25713;-35.352;149.036;2023-09-08T09:35:48;3.25;;;0.52;;
40022;SDS011;25713;-35.352;149.036;2023-09-08T09:38:18;1.75;;;0.47;;
40022;SDS011;25713;-35.352;149.036;2023-09-08T09:40:48;1.95;;;0.60;;
40022;SDS011;25713;-35.352;149.036;2023-09-08T09:43:20;5.10;;;0.75;;
40022;SDS011;25713;-35.352;149.036;2023-09-08T09:45:51;2.15;;;0.47;;
40022;SDS011;25713;-35.352;149.036;2023-09-08T09:48:22;2.53;;;0.60;;
40022;SDS011;25713;-35.352;149.036;2023-09-08T09:50:52;2.47;;;0.40;;
40022;SDS011;25713;-35.352;149.036;2023-09-08T09:53:22;1.83;;;0.30;;
40022;SDS011;25713;-35.352;149.036;2023-09-08T09:55:51;3.60;;;0.60;;
40022;SDS011;25713;-35.352;149.036;2023-09-08T09:58:21;1.83;;;0.55;;
40022;SDS011;25713;-35.352;149.036;2023-09-08T10:00:54;3.85;;;0.70;;
40022;SDS011;25713;-35.352;149.036;2023-09-08T10:03:24;1.40;;;0.47;;
40022;SDS011;25713;-35.352;149.036;2023-09-08T10:05:55;3.40;;;0.60;;
40022;SDS011;25713;-35.352;149.036;2023-09-08T10:08:26;3.63;;;0.65;;
40022;SDS011;25713;-35.352;149.036;2023-09-08T10:10:57;4.05;;;0.88;;
40022;SDS011;25713;-35.352;149.036;2023-09-08T10:13:28;2.25;;;0.50;;
40022;SDS011;25713;-35.352;149.036;2023-09-08T10:16:01;2.20;;;0.47;;
40022;SDS011;25713;-35.352;149.036;2023-09-08T10:18:32;4.57;;;0.75;;
40022;SDS011;25713;-35.352;149.036;2023-09-08T10:21:03;1.13;;;0.40;;
40022;SDS011;25713;-35.352;149.036;2023-09-08T10:23:36;4.00;;;0.50;;
40022;SDS011;25713;-35.352;149.036;2023-09-08T10:26:09;3.05;;;0.93;;
40022;SDS011;25713;-35.352;149.036;2023-09-08T10:28:39;2.55;;;0.90;;
40022;SDS011;25713;-35.352;149.036;2023-09-08T10:31:10;4.28;;;0.82;;
40022;SDS011;25713;-35.352;149.036;2023-09-08T10:33:40;3.40;;;0.70;;
40022;SDS011;25713;-35.352;149.036;2023-09-08T10:36:11;4.10;;;0.77;;
40022;SDS011;25713;-35.352;149.036;2023-09-08T10:38:41;2.95;;;0.65;;
40022;SDS011;25713;-35.352;149.036;2023-09-08T10:43:56;2.88;;;1.13;;
40022;SDS011;25713;-35.352;149.036;2023-09-08T10:49:02;3.60;;;0.60;;
40022;SDS011;25713;-35.352;149.036;2023-09-08T10:51:33;3.35;;;0.93;;
40022;SDS011;25713;-35.352;149.036;2023-09-08T10:54:03;3.55;;;0.52;;
40022;SDS011;25713;-35.352;149.036;2023-09-08T10:59:22;2.30;;;0.68;;
40022;SDS011;25713;-35.352;149.036;2023-09-08T11:02:05;3.15;;;0.43;;
40022;SDS011;25713;-35.352;149.036;2023-09-08T11:04:34;1.23;;;0.45;;
40022;SDS011;25713;-35.352;149.036;2023-09-08T11:07:04;2.92;;;0.60;;
40022;SDS011;25713;-35.352;149.036;2023-09-08T11:09:35;1.50;;;0.47;;
40022;SDS011;25713;-35.352;149.036;2023-09-08T11:12:05;4.22;;;0.55;;
40022;SDS011;25713;-35.352;149.036;2023-09-08T11:14:36;2.60;;;0.80;;
40022;SDS011;25713;-35.352;149.036;2023-09-08T11:17:07;2.03;;;0.40;;
40022;SDS011;25713;-35.352;149.036;2023-09-08T11:19:44;2.95;;;0.40;;
40022;SDS011;25713;-35.352;149.036;2023-09-08T11:22:14;2.28;;;0.55;;
40022;SDS011;25713;-35.352;149.036;2023-09-08T11:24:44;3.38;;;0.47;;
40022;SDS011;25713;-35.352;149.036;2023-09-08T11:27:14;3.03;;;0.40;;
40022;SDS011;25713;-35.352;149.036;2023-09-08T11:29:43;2.97;;;0.63;;
40022;SDS011;25713;-35.352;149.036;2023-09-08T11:32:15;1.73;;;0.40;;
40022;SDS011;25713;-35.352;149.036;2023-09-08T11:34:44;3.78;;;0.63;;
40022;SDS011;25713;-35.352;149.036;2023-09-08T11:37:14;3.42;;;1.40;;
40022;SDS011;25713;-35.352;149.036;2023-09-08T11:39:45;2.67;;;0.73;;
40022;SDS011;25713;-35.352;149.036;2023-09-08T11:42:14;2.33;;;0.88;;
40022;SDS011;25713;-35.352;149.036;2023-09-08T11:44:44;6.43;;;0.88;;
40022;SDS011;25713;-35.352;149.036;2023-09-08T11:47:17;6.30;;;1.52;;
40022;SDS011;25713;-35.352;149.036;2023-09-08T11:49:47;2.65;;;1.20;;
40022;SDS011;25713;-35.352;149.036;2023-09-08T11:52:22;2.38;;;1.20;;
40022;SDS011;25713;-35.352;149.036;2023-09-08T11:54:51;2.53;;;1.02;;
40022;SDS011;25713;-35.352;149.036;2023-09-08T11:57:21;3.13;;;1.00;;
40022;SDS011;25713;-35.352;149.036;2023-09-08T11:59:51;3.67;;;1.30;;
40022;SDS011;25713;-35.352;149.036;2023-09-08T12:02:23;3.85;;;1.33;;
40022;SDS011;25713;-35.352;149.036;2023-09-08T12:04:53;3.50;;;1.00;;
40022;SDS011;25713;-35.352;149.036;2023-09-08T12:07:23;2.90;;;1.10;;
40022;SDS011;25713;-35.352;149.036;2023-09-08T12:09:52;1.75;;;1.00;;
40022;SDS011;25713;-35.352;149.036;2023-09-08T12:12:22;2.90;;;1.13;;
40022;SDS011;25713;-35.352;149.036;2023-09-08T12:14:51;1.55;;;0.95;;
40022;SDS011;25713;-35.352;149.036;2023-09-08T12:17:23;3.60;;;0.95;;
40022;SDS011;25713;-35.352;149.036;2023-09-08T12:19:52;3.90;;;1.02;;
40022;SDS011;25713;-35.352;149.036;2023-09-08T12:22:22;3.00;;;1.00;;
40022;SDS011;25713;-35.352;149.036;2023-09-08T12:24:56;1.90;;;0.60;;
40022;SDS011;25713;-35.352;149.036;2023-09-08T12:27:26;1.42;;;0.93;;
40022;SDS011;25713;-35.352;149.036;2023-09-08T12:29:56;1.52;;;0.77;;
40022;SDS011;25713;-35.352;149.036;2023-09-08T12:32:28;2.33;;;0.80;;
40022;SDS011;25713;-35.352;149.036;2023-09-08T12:34:59;2.30;;;1.02;;
40022;SDS011;25713;-35.352;149.036;2023-09-08T12:37:30;1.98;;;0.65;;
40022;SDS011;25713;-35.352;149.036;2023-09-08T12:40:02;0.80;;;0.52;;
40022;SDS011;25713;-35.352;149.036;2023-09-08T12:42:31;1.77;;;0.77;;
40022;SDS011;25713;-35.352;149.036;2023-09-08T12:45:01;4.75;;;0.80;;
40022;SDS011;25713;-35.352;149.036;2023-09-08T12:47:32;1.08;;;0.60;;
40022;SDS011;25713;-35.352;149.036;2023-09-08T12:50:02;1.67;;;0.50;;
40022;SDS011;25713;-35.352;149.036;2023-09-08T12:52:31;3.03;;;0.60;;
40022;SDS011;25713;-35.352;149.036;2023-09-08T12:55:00;1.05;;;0.70;;
40022;SDS011;25713;-35.352;149.036;2023-09-08T12:57:30;2.50;;;0.60;;
40022;SDS011;25713;-35.352;149.036;2023-09-08T12:59:59;2.40;;;0.60;;
40022;SDS011;25713;-35.352;149.036;2023-09-08T13:02:29;1.35;;;0.50;;
40022;SDS011;25713;-35.352;149.036;2023-09-08T13:05:01;2.00;;;0.75;;
40022;SDS011;25713;-35.352;149.036;2023-09-08T13:07:30;1.42;;;0.73;;
40022;SDS011;25713;-35.352;149.036;2023-09-08T13:09:59;1.42;;;0.50;;
40022;SDS011;25713;-35.352;149.036;2023-09-08T13:12:29;1.05;;;0.40;;
40022;SDS011;25713;-35.352;149.036;2023-09-08T13:14:58;1.77;;;0.50;;
40022;SDS011;25713;-35.352;149.036;2023-09-08T13:17:28;0.73;;;0.40;;
40022;SDS011;25713;-35.352;149.036;2023-09-08T13:19:59;1.58;;;0.52;;
40022;SDS011;25713;-35.352;149.036;2023-09-08T13:22:29;1.13;;;0.50;;
40022;SDS011;25713;-35.352;149.036;2023-09-08T13:24:58;2.95;;;0.50;;
40022;SDS011;25713;-35.352;149.036;2023-09-08T13:27:28;0.40;;;0.32;;
40022;SDS011;25713;-35.352;149.036;2023-09-08T13:30:07;1.27;;;0.45;;
40022;SDS011;25713;-35.352;149.036;2023-09-08T13:32:41;0.65;;;0.40;;
40022;SDS011;25713;-35.352;149.036;2023-09-08T13:35:13;1.85;;;0.40;;
40022;SDS011;25713;-35.352;149.036;2023-09-08T13:37:43;0.30;;;0.30;;
40022;SDS011;25713;-35.352;149.036;2023-09-08T13:40:12;0.52;;;0.30;;
40022;SDS011;25713;-35.352;149.036;2023-09-08T13:42:42;1.00;;;0.25;;
40022;SDS011;25713;-35.352;149.036;2023-09-08T13:45:12;2.83;;;0.93;;
40022;SDS011;25713;-35.352;149.036;2023-09-08T13:47:41;0.65;;;0.25;;
40022;SDS011;25713;-35.352;149.036;2023-09-08T13:50:11;2.00;;;0.30;;
40022;SDS011;25713;-35.352;149.036;2023-09-08T13:52:42;0.30;;;0.20;;
40022;SDS011;25713;-35.352;149.036;2023-09-08T13:55:12;1.27;;;0.25;;
40022;SDS011;25713;-35.352;149.036;2023-09-08T13:57:41;0.60;;;0.20;;
40022;SDS011;25713;-35.352;149.036;2023-09-08T14:00:11;0.47;;;0.20;;
40022;SDS011;25713;-35.352;149.036;2023-09-08T14:02:41;0.20;;;0.20;;
40022;SDS011;25713;-35.352;149.036;2023-09-08T14:05:10;0.38;;;0.20;;
40022;SDS011;25713;-35.352;149.036;2023-09-08T14:07:42;0.70;;;0.20;;
40022;SDS011;25713;-35.352;149.036;2023-09-08T14:10:12;0.10;;;0.10;;
40022;SDS011;25713;-35.352;149.036;2023-09-08T14:12:41;1.10;;;0.20;;
40022;SDS011;25713;-35.352;149.036;2023-09-08T14:15:10;0.20;;;0.10;;
40022;SDS011;25713;-35.352;149.036;2023-09-08T14:17:40;0.13;;;0.10;;
40022;SDS011;25713;-35.352;149.036;2023-09-08T14:20:10;1.80;;;0.25;;
40022;SDS011;25713;-35.352;149.036;2023-09-08T14:22:42;0.43;;;0.43;;
40022;SDS011;25713;-35.352;149.036;2023-09-08T14:25:11;0.55;;;0.10;;
40022;SDS011;25713;-35.352;149.036;2023-09-08T14:27:41;1.55;;;0.20;;
40022;SDS011;25713;-35.352;149.036;2023-09-08T14:30:10;0.10;;;0.05;;
40022;SDS011;25713;-35.352;149.036;2023-09-08T14:32:40;0.00;;;0.00;;
40022;SDS011;25713;-35.352;149.036;2023-09-08T14:35:10;0.00;;;0.00;;
40022;SDS011;25713;-35.352;149.036;2023-09-08T14:37:39;0.10;;;0.10;;
40022;SDS011;25713;-35.352;149.036;2023-09-08T14:40:11;0.10;;;0.10;;
40022;SDS011;25713;-35.352;149.036;2023-09-08T14:42:41;0.63;;;0.13;;
40022;SDS011;25713;-35.352;149.036;2023-09-08T14:45:10;0.20;;;0.10;;